Terminal Aerodrome Forecast
Issued by NWS Sterling, VA

Home | Current Version | Previous Version | Text Only | Print | Product List | Glossary On
Versions: 1 2 3 4 5 6 7 8 9 10 11 12 13 14 15 16 17 18 19 20 21 22 23 24 25 26 27
213
FTUS41 KLWX 210839 AAA
TAFBWI
TAF AMD
KBWI 210839Z 2109/2212 VRB04KT P6SM SCT250
     FM211000 21006KT 5SM BR SCT006 BKN010
      TEMPO 2110/2114 BKN006
     FM211500 22009KT P6SM BKN050
     FM212000 22010KT P6SM SCT150
     FM212300 22006KT P6SM VCSH BKN090
     FM220500 36009KT P6SM VCSH BKN030=

USA.gov is the U.S. government's official web portal to all federal, state and local government web resources and services.